DLH26 EDDG-EDXW
Flight info
| Callsign | DLH26 |
|---|---|
| Flight time | 0h 37m |
| Altitude | 25000 |
| Route | JUWGI Z529 RORUS DCT GIKOG |
| Aircraft | A319/M-SDE3FGHIRWY/LB1 |
Departure
| Time | 2026-04-20 15:31 |
|---|---|
| Airport | Münster Osnabrück Airport (EDDG) |
Arrival
| Time | 2026-04-20 16:09 |
|---|---|
| Airport | Westerland Sylt Airport (EDXW) |
| Time | Latitude | Longitude | Altitude | Speed | Heading |
|---|---|---|---|---|---|
| 2026-04-20 15:12 | 52.13270 | 7.69213 | 168 ft | 0 kts | 161° |
| 2026-04-20 15:26 | 52.13251 | 7.69224 | 167 ft | 5 kts | 161° |
| 2026-04-20 15:26 | 52.13212 | 7.69223 | 167 ft | 7 kts | 206° |
| 2026-04-20 15:27 | 52.13189 | 7.69145 | 167 ft | 9 kts | 252° |
| 2026-04-20 15:27 | 52.13165 | 7.69035 | 167 ft | 12 kts | 250° |
| 2026-04-20 15:27 | 52.13183 | 7.68941 | 168 ft | 10 kts | 329° |
| 2026-04-20 15:27 | 52.13256 | 7.68901 | 168 ft | 12 kts | 341° |
| 2026-04-20 15:28 | 52.13344 | 7.68845 | 168 ft | 14 kts | 322° |
| 2026-04-20 15:28 | 52.13343 | 7.68727 | 168 ft | 12 kts | 250° |
| 2026-04-20 15:28 | 52.13311 | 7.68584 | 168 ft | 15 kts | 250° |
| 2026-04-20 15:28 | 52.13275 | 7.68414 | 168 ft | 17 kts | 251° |
| 2026-04-20 15:29 | 52.13234 | 7.68218 | 168 ft | 19 kts | 251° |
| 2026-04-20 15:29 | 52.13187 | 7.67997 | 168 ft | 22 kts | 251° |
| 2026-04-20 15:29 | 52.13135 | 7.67751 | 167 ft | 24 kts | 251° |
| 2026-04-20 15:29 | 52.13077 | 7.67480 | 167 ft | 26 kts | 251° |
| 2026-04-20 15:30 | 52.13028 | 7.67242 | 167 ft | 17 kts | 258° |
| 2026-04-20 15:30 | 52.13060 | 7.67092 | 167 ft | 15 kts | 315° |
| 2026-04-20 15:30 | 52.13147 | 7.67041 | 167 ft | 8 kts | 6° |
| 2026-04-20 15:30 | 52.13178 | 7.67125 | 166 ft | 10 kts | 73° |
| 2026-04-20 15:31 | 52.13206 | 7.67261 | 165 ft | 22 kts | 71° |
| 2026-04-20 15:31 | 52.13347 | 7.67923 | 167 ft | 99 kts | 71° |
| 2026-04-20 15:31 | 52.13643 | 7.69325 | 203 ft | 157 kts | 72° |
| 2026-04-20 15:31 | 52.13983 | 7.70995 | 912 ft | 151 kts | 75° |
| 2026-04-20 15:32 | 52.14301 | 7.72603 | 1724 ft | 148 kts | 70° |
| 2026-04-20 15:32 | 52.14574 | 7.74240 | 2360 ft | 157 kts | 70° |
| 2026-04-20 15:32 | 52.14806 | 7.75438 | 2634 ft | 171 kts | 65° |
| 2026-04-20 15:32 | 52.15572 | 7.77002 | 3065 ft | 184 kts | 32° |
| 2026-04-20 15:33 | 52.16794 | 7.77543 | 3806 ft | 186 kts | 2° |
| 2026-04-20 15:33 | 52.18159 | 7.77539 | 4220 ft | 208 kts | 2° |
| 2026-04-20 15:33 | 52.19693 | 7.77626 | 4697 ft | 233 kts | 3° |
| 2026-04-20 15:33 | 52.21383 | 7.77746 | 5327 ft | 250 kts | 3° |
| 2026-04-20 15:34 | 52.23147 | 7.77871 | 6183 ft | 257 kts | 4° |
| 2026-04-20 15:34 | 52.24957 | 7.77996 | 7074 ft | 263 kts | 5° |
| 2026-04-20 15:34 | 52.26806 | 7.78114 | 7933 ft | 269 kts | 5° |
| 2026-04-20 15:34 | 52.28700 | 7.78234 | 8759 ft | 276 kts | 6° |
| 2026-04-20 15:35 | 52.30609 | 7.78355 | 9625 ft | 281 kts | 6° |
| 2026-04-20 15:35 | 52.32578 | 7.78477 | 10434 ft | 289 kts | 6° |
| 2026-04-20 15:35 | 52.34660 | 7.78739 | 10733 ft | 311 kts | 12° |
| 2026-04-20 15:35 | 52.36833 | 7.79606 | 11031 ft | 330 kts | 20° |
| 2026-04-20 15:36 | 52.39061 | 7.80701 | 11667 ft | 338 kts | 20° |
| 2026-04-20 15:36 | 52.41336 | 7.81811 | 12425 ft | 343 kts | 19° |
| 2026-04-20 15:36 | 52.43641 | 7.82927 | 13201 ft | 347 kts | 19° |
| 2026-04-20 15:36 | 52.45970 | 7.84056 | 13972 ft | 351 kts | 19° |
| 2026-04-20 15:37 | 52.48326 | 7.85199 | 14662 ft | 355 kts | 19° |
| 2026-04-20 15:37 | 52.50702 | 7.86351 | 15345 ft | 358 kts | 19° |
| 2026-04-20 15:37 | 52.53098 | 7.87516 | 16073 ft | 360 kts | 19° |
| 2026-04-20 15:37 | 52.55510 | 7.88691 | 16766 ft | 363 kts | 19° |
| 2026-04-20 15:38 | 52.57942 | 7.89878 | 17448 ft | 366 kts | 19° |
| 2026-04-20 15:38 | 52.60395 | 7.91080 | 18119 ft | 370 kts | 19° |
| 2026-04-20 15:38 | 52.62874 | 7.92296 | 18750 ft | 373 kts | 19° |
| 2026-04-20 15:38 | 52.65377 | 7.93530 | 19326 ft | 377 kts | 19° |
| 2026-04-20 15:39 | 52.67902 | 7.94776 | 19883 ft | 381 kts | 19° |
| 2026-04-20 15:39 | 52.70459 | 7.96033 | 20422 ft | 386 kts | 19° |
| 2026-04-20 15:39 | 52.73048 | 7.97310 | 20984 ft | 390 kts | 19° |
| 2026-04-20 15:39 | 52.75655 | 7.98597 | 21529 ft | 393 kts | 19° |
| 2026-04-20 15:40 | 52.78284 | 7.99894 | 22085 ft | 396 kts | 19° |
| 2026-04-20 15:40 | 52.80938 | 8.01202 | 22600 ft | 400 kts | 19° |
| 2026-04-20 15:40 | 52.83613 | 8.02518 | 23113 ft | 403 kts | 19° |
| 2026-04-20 15:40 | 52.86315 | 8.03850 | 23618 ft | 406 kts | 19° |
| 2026-04-20 15:41 | 52.89037 | 8.05198 | 24063 ft | 410 kts | 19° |
| 2026-04-20 15:41 | 52.91774 | 8.06562 | 24490 ft | 413 kts | 19° |
| 2026-04-20 15:41 | 52.94532 | 8.07937 | 24908 ft | 416 kts | 19° |
| 2026-04-20 15:41 | 52.97313 | 8.09322 | 25139 ft | 418 kts | 19° |
| 2026-04-20 15:42 | 53.00100 | 8.10715 | 25180 ft | 420 kts | 19° |
| 2026-04-20 15:42 | 53.02899 | 8.12113 | 25185 ft | 420 kts | 19° |
| 2026-04-20 15:42 | 53.05701 | 8.13514 | 25185 ft | 420 kts | 19° |
| 2026-04-20 15:42 | 53.08499 | 8.14917 | 25185 ft | 420 kts | 19° |
| 2026-04-20 15:43 | 53.11303 | 8.16322 | 25185 ft | 420 kts | 19° |
| 2026-04-20 15:43 | 53.14108 | 8.17730 | 25185 ft | 420 kts | 19° |
| 2026-04-20 15:43 | 53.16903 | 8.19137 | 25181 ft | 419 kts | 19° |
| 2026-04-20 15:43 | 53.19688 | 8.20543 | 25179 ft | 418 kts | 19° |
| 2026-04-20 15:44 | 53.22468 | 8.21947 | 25179 ft | 417 kts | 19° |
| 2026-04-20 15:44 | 53.25243 | 8.23351 | 25179 ft | 417 kts | 19° |
| 2026-04-20 15:44 | 53.28019 | 8.24759 | 25187 ft | 417 kts | 19° |
| 2026-04-20 15:44 | 53.30760 | 8.26150 | 25188 ft | 417 kts | 19° |
| 2026-04-20 15:45 | 53.33534 | 8.27554 | 25185 ft | 417 kts | 19° |
| 2026-04-20 15:45 | 53.36345 | 8.28976 | 25186 ft | 417 kts | 19° |
| 2026-04-20 15:45 | 53.39088 | 8.30363 | 25185 ft | 417 kts | 19° |
| 2026-04-20 15:45 | 53.41862 | 8.31769 | 25185 ft | 417 kts | 19° |
| 2026-04-20 15:46 | 53.44635 | 8.33178 | 25185 ft | 417 kts | 19° |
| 2026-04-20 15:46 | 53.47410 | 8.34591 | 25196 ft | 416 kts | 19° |
| 2026-04-20 15:46 | 53.50171 | 8.36006 | 25204 ft | 415 kts | 19° |
| 2026-04-20 15:46 | 53.52931 | 8.37426 | 25212 ft | 414 kts | 19° |
| 2026-04-20 15:47 | 53.55682 | 8.38840 | 25223 ft | 413 kts | 19° |
| 2026-04-20 15:47 | 53.58435 | 8.40253 | 25219 ft | 413 kts | 19° |
| 2026-04-20 15:47 | 53.61178 | 8.41664 | 25218 ft | 412 kts | 19° |
| 2026-04-20 15:47 | 53.63917 | 8.43078 | 25214 ft | 412 kts | 19° |
| 2026-04-20 15:48 | 53.66658 | 8.44493 | 25230 ft | 412 kts | 19° |
| 2026-04-20 15:48 | 53.69394 | 8.45905 | 25225 ft | 412 kts | 19° |
| 2026-04-20 15:48 | 53.72132 | 8.47320 | 25229 ft | 411 kts | 19° |
| 2026-04-20 15:48 | 53.74863 | 8.48733 | 25234 ft | 410 kts | 18° |
| 2026-04-20 15:49 | 53.77590 | 8.50146 | 25235 ft | 410 kts | 19° |
| 2026-04-20 15:49 | 53.80314 | 8.51561 | 25235 ft | 409 kts | 18° |
| 2026-04-20 15:49 | 53.83032 | 8.52975 | 25228 ft | 409 kts | 19° |
| 2026-04-20 15:49 | 53.85748 | 8.54391 | 25229 ft | 408 kts | 19° |
| 2026-04-20 15:50 | 53.88463 | 8.55808 | 25228 ft | 408 kts | 18° |
| 2026-04-20 15:50 | 53.91177 | 8.57223 | 25223 ft | 408 kts | 19° |
| 2026-04-20 15:50 | 53.93886 | 8.58637 | 25226 ft | 408 kts | 19° |
| 2026-04-20 15:50 | 53.96597 | 8.60054 | 25228 ft | 407 kts | 19° |
| 2026-04-20 15:51 | 53.99298 | 8.61469 | 25239 ft | 406 kts | 19° |
| 2026-04-20 15:51 | 54.02000 | 8.62885 | 25242 ft | 406 kts | 19° |
| 2026-04-20 15:51 | 54.04697 | 8.64303 | 25242 ft | 405 kts | 19° |
| 2026-04-20 15:51 | 54.07390 | 8.65720 | 25246 ft | 405 kts | 19° |
| 2026-04-20 15:52 | 54.10047 | 8.67118 | 25247 ft | 405 kts | 19° |
| 2026-04-20 15:52 | 54.12775 | 8.68557 | 25199 ft | 404 kts | 19° |
| 2026-04-20 15:52 | 54.15423 | 8.69956 | 25080 ft | 404 kts | 19° |
| 2026-04-20 15:53 | 54.20814 | 8.72813 | 24605 ft | 401 kts | 19° |
| 2026-04-20 15:53 | 54.23440 | 8.74202 | 24230 ft | 401 kts | 19° |
| 2026-04-20 15:53 | 54.26094 | 8.75607 | 23577 ft | 398 kts | 19° |
| 2026-04-20 15:53 | 54.28722 | 8.77001 | 22972 ft | 393 kts | 19° |
| 2026-04-20 15:54 | 54.31357 | 8.78400 | 22435 ft | 389 kts | 19° |
| 2026-04-20 15:54 | 54.33901 | 8.79758 | 21873 ft | 386 kts | 20° |
| 2026-04-20 15:54 | 54.36489 | 8.81142 | 21414 ft | 384 kts | 20° |
| 2026-04-20 15:54 | 54.39027 | 8.82502 | 20916 ft | 380 kts | 19° |
| 2026-04-20 15:55 | 54.41485 | 8.83817 | 20687 ft | 370 kts | 19° |
| 2026-04-20 15:55 | 54.43924 | 8.85119 | 20249 ft | 365 kts | 20° |
| 2026-04-20 15:55 | 54.46339 | 8.86414 | 19796 ft | 362 kts | 20° |
| 2026-04-20 15:55 | 54.48728 | 8.87700 | 19350 ft | 358 kts | 20° |
| 2026-04-20 15:56 | 54.51095 | 8.88974 | 18907 ft | 354 kts | 21° |
| 2026-04-20 15:56 | 54.53498 | 8.89861 | 18464 ft | 356 kts | 7° |
| 2026-04-20 15:56 | 54.55966 | 8.89516 | 17963 ft | 359 kts | 349° |
| 2026-04-20 15:56 | 54.58288 | 8.87913 | 17470 ft | 363 kts | 332° |
| 2026-04-20 15:57 | 54.60246 | 8.85146 | 16988 ft | 367 kts | 315° |
| 2026-04-20 15:57 | 54.61629 | 8.81440 | 16513 ft | 371 kts | 296° |
| 2026-04-20 15:57 | 54.62293 | 8.77149 | 16043 ft | 372 kts | 276° |
| 2026-04-20 15:57 | 54.62316 | 8.72698 | 15582 ft | 370 kts | 271° |
| 2026-04-20 15:58 | 54.62597 | 8.68304 | 15121 ft | 368 kts | 283° |
| 2026-04-20 15:58 | 54.63357 | 8.64110 | 14594 ft | 366 kts | 294° |
| 2026-04-20 15:58 | 54.64420 | 8.60115 | 14081 ft | 366 kts | 297° |
| 2026-04-20 15:58 | 54.65475 | 8.56118 | 13512 ft | 366 kts | 296° |
| 2026-04-20 15:59 | 54.66515 | 8.52115 | 12947 ft | 364 kts | 296° |
| 2026-04-20 15:59 | 54.67541 | 8.48124 | 12390 ft | 363 kts | 296° |
| 2026-04-20 15:59 | 54.68559 | 8.44152 | 11843 ft | 359 kts | 295° |
| 2026-04-20 15:59 | 54.69555 | 8.40245 | 11300 ft | 352 kts | 295° |
| 2026-04-20 16:00 | 54.70528 | 8.36410 | 10930 ft | 342 kts | 295° |
| 2026-04-20 16:00 | 54.71467 | 8.32720 | 10675 ft | 329 kts | 295° |
| 2026-04-20 16:00 | 54.72434 | 8.29176 | 10215 ft | 323 kts | 303° |
| 2026-04-20 16:00 | 54.73800 | 8.26159 | 9714 ft | 314 kts | 319° |
| 2026-04-20 16:01 | 54.75504 | 8.23920 | 9289 ft | 303 kts | 334° |
| 2026-04-20 16:01 | 54.77363 | 8.22461 | 8869 ft | 293 kts | 343° |
| 2026-04-20 16:01 | 54.79237 | 8.21143 | 8425 ft | 289 kts | 342° |
| 2026-04-20 16:01 | 54.81087 | 8.19831 | 7960 ft | 286 kts | 342° |
| 2026-04-20 16:02 | 54.82925 | 8.18524 | 7458 ft | 285 kts | 342° |
| 2026-04-20 16:02 | 54.84758 | 8.17215 | 6962 ft | 285 kts | 343° |
| 2026-04-20 16:02 | 54.86586 | 8.15904 | 6472 ft | 283 kts | 342° |
| 2026-04-20 16:02 | 54.88376 | 8.14620 | 6130 ft | 275 kts | 342° |
| 2026-04-20 16:03 | 54.90119 | 8.13370 | 5787 ft | 267 kts | 342° |
| 2026-04-20 16:03 | 54.91817 | 8.12148 | 5447 ft | 261 kts | 342° |
| 2026-04-20 16:03 | 54.93474 | 8.10961 | 5104 ft | 254 kts | 342° |
| 2026-04-20 16:03 | 54.95073 | 8.09819 | 4763 ft | 244 kts | 342° |
| 2026-04-20 16:04 | 54.96633 | 8.08876 | 4415 ft | 230 kts | 357° |
| 2026-04-20 16:04 | 54.98166 | 8.09054 | 4085 ft | 216 kts | 22° |
| 2026-04-20 16:04 | 54.99435 | 8.10292 | 3744 ft | 206 kts | 45° |
| 2026-04-20 16:04 | 55.00316 | 8.12188 | 3397 ft | 200 kts | 57° |
| 2026-04-20 16:05 | 55.01122 | 8.14154 | 3057 ft | 199 kts | 56° |
| 2026-04-20 16:05 | 55.01923 | 8.16097 | 2719 ft | 194 kts | 57° |
| 2026-04-20 16:05 | 55.02381 | 8.18203 | 2372 ft | 184 kts | 86° |
| 2026-04-20 16:05 | 55.02073 | 8.20326 | 2038 ft | 184 kts | 118° |
| 2026-04-20 16:06 | 55.01130 | 8.21855 | 1722 ft | 186 kts | 139° |
| 2026-04-20 16:06 | 55.00099 | 8.23110 | 1542 ft | 173 kts | 137° |
| 2026-04-20 16:06 | 54.99177 | 8.24239 | 1509 ft | 148 kts | 136° |
| 2026-04-20 16:06 | 54.98386 | 8.25221 | 1498 ft | 135 kts | 136° |
| 2026-04-20 16:07 | 54.97645 | 8.26160 | 1451 ft | 130 kts | 135° |
| 2026-04-20 16:07 | 54.96906 | 8.27090 | 1335 ft | 133 kts | 135° |
| 2026-04-20 16:07 | 54.96148 | 8.28043 | 1157 ft | 135 kts | 136° |
| 2026-04-20 16:07 | 54.95398 | 8.28995 | 953 ft | 132 kts | 135° |
| 2026-04-20 16:08 | 54.94659 | 8.29921 | 705 ft | 130 kts | 137° |
| 2026-04-20 16:08 | 54.93935 | 8.30798 | 566 ft | 125 kts | 138° |
| 2026-04-20 16:08 | 54.93234 | 8.31666 | 401 ft | 122 kts | 138° |
| 2026-04-20 16:08 | 54.92540 | 8.32528 | 225 ft | 123 kts | 139° |
| 2026-04-20 16:09 | 54.91853 | 8.33376 | 62 ft | 120 kts | 139° |
| 2026-04-20 16:09 | 54.91263 | 8.34125 | 41 ft | 85 kts | 144° |
| 2026-04-20 16:09 | 54.90983 | 8.34469 | 41 ft | 33 kts | 144° |
| 2026-04-20 16:09 | 54.90801 | 8.34695 | 35 ft | 32 kts | 144° |
| 2026-04-20 16:10 | 54.90659 | 8.34874 | 34 ft | 19 kts | 144° |
| 2026-04-20 16:10 | 54.90603 | 8.34939 | 38 ft | 7 kts | 151° |
| 2026-04-20 16:10 | 54.90546 | 8.35004 | 38 ft | 16 kts | 144° |
| 2026-04-20 16:10 | 54.90453 | 8.35135 | 39 ft | 15 kts | 139° |
| 2026-04-20 16:11 | 54.90379 | 8.35163 | 38 ft | 13 kts | 212° |
| 2026-04-20 16:11 | 54.90329 | 8.35038 | 37 ft | 12 kts | 251° |
| 2026-04-20 16:11 | 54.90314 | 8.34899 | 36 ft | 11 kts | 260° |
| 2026-04-20 16:11 | 54.90300 | 8.34761 | 35 ft | 13 kts | 260° |
| 2026-04-20 16:12 | 54.90284 | 8.34595 | 31 ft | 15 kts | 261° |
| 2026-04-20 16:12 | 54.90263 | 8.34406 | 31 ft | 16 kts | 260° |
| 2026-04-20 16:12 | 54.90244 | 8.34226 | 30 ft | 14 kts | 259° |
| 2026-04-20 16:12 | 54.90236 | 8.34064 | 29 ft | 13 kts | 271° |
| 2026-04-20 16:13 | 54.90245 | 8.33913 | 29 ft | 13 kts | 278° |
| 2026-04-20 16:13 | 54.90259 | 8.33754 | 29 ft | 14 kts | 278° |
| 2026-04-20 16:13 | 54.90288 | 8.33591 | 29 ft | 15 kts | 296° |
| 2026-04-20 16:13 | 54.90345 | 8.33443 | 30 ft | 15 kts | 311° |
| 2026-04-20 16:14 | 54.90425 | 8.33329 | 30 ft | 15 kts | 332° |
| 2026-04-20 16:14 | 54.90523 | 8.33260 | 31 ft | 15 kts | 345° |
| 2026-04-20 16:14 | 54.90625 | 8.33239 | 32 ft | 15 kts | 356° |
| 2026-04-20 16:14 | 54.90721 | 8.33227 | 34 ft | 13 kts | 356° |
| 2026-04-20 16:15 | 54.90815 | 8.33210 | 30 ft | 15 kts | 346° |
| 2026-04-20 16:15 | 54.90914 | 8.33142 | 27 ft | 14 kts | 331° |
| 2026-04-20 16:15 | 54.90971 | 8.33105 | 27 ft | 8 kts | 9° |
| 2026-04-20 16:15 | 54.91027 | 8.33157 | 28 ft | 11 kts | 26° |
| 2026-04-20 16:16 | 54.91103 | 8.33180 | 24 ft | 11 kts | 359° |
| 2026-04-20 16:16 | 54.91163 | 8.33180 | 28 ft | 6 kts | 359° |
| 2026-04-20 16:16 | 54.91192 | 8.33179 | 29 ft | 3 kts | 359° |
| 2026-04-20 16:16 | 54.91221 | 8.33179 | 28 ft | 6 kts | 0° |
| 2026-04-20 16:17 | 54.91262 | 8.33180 | 28 ft | 6 kts | 2° |
| 2026-04-20 16:17 | 54.91298 | 8.33209 | 28 ft | 6 kts | 33° |
| 2026-04-20 16:17 | 54.91332 | 8.33244 | 28 ft | 5 kts | 26° |
| 2026-04-20 16:17 | 54.91366 | 8.33248 | 28 ft | 4 kts | 348° |
| 2026-04-20 16:18 | 54.91384 | 8.33219 | 28 ft | 3 kts | 301° |
| 2026-04-20 16:18 | 54.91386 | 8.33192 | 28 ft | 2 kts | 271° |
| 2026-04-20 16:18 | 54.91386 | 8.33161 | 28 ft | 3 kts | 269° |
| 2026-04-20 16:18 | 54.91386 | 8.33129 | 28 ft | 2 kts | 270° |
| 2026-04-20 16:19 | 54.91386 | 8.33119 | 28 ft | 0 kts | 270° |